sensor_id;sensor_type;location;lat;lon;timestamp;P1;durP1;ratioP1;P2;durP2;ratioP2
5343;SDS011;2694;48.954;8.928;2023-03-21T00:02:05;10.00;;;2.77;;
5343;SDS011;2694;48.954;8.928;2023-03-21T00:04:32;6.53;;;2.92;;
5343;SDS011;2694;48.954;8.928;2023-03-21T00:06:59;7.78;;;2.80;;
5343;SDS011;2694;48.954;8.928;2023-03-21T00:09:27;7.15;;;3.17;;
5343;SDS011;2694;48.954;8.928;2023-03-21T00:11:54;8.25;;;3.50;;
5343;SDS011;2694;48.954;8.928;2023-03-21T00:14:25;5.45;;;2.95;;
5343;SDS011;2694;48.954;8.928;2023-03-21T00:16:54;8.45;;;3.20;;
5343;SDS011;2694;48.954;8.928;2023-03-21T00:19:22;6.55;;;3.28;;
5343;SDS011;2694;48.954;8.928;2023-03-21T00:21:50;5.97;;;3.30;;
5343;SDS011;2694;48.954;8.928;2023-03-21T00:24:19;4.73;;;2.73;;
5343;SDS011;2694;48.954;8.928;2023-03-21T00:26:48;10.93;;;3.47;;
5343;SDS011;2694;48.954;8.928;2023-03-21T00:29:16;5.47;;;2.70;;
5343;SDS011;2694;48.954;8.928;2023-03-21T00:31:43;5.28;;;4.00;;
5343;SDS011;2694;48.954;8.928;2023-03-21T00:34:10;3.92;;;2.40;;
5343;SDS011;2694;48.954;8.928;2023-03-21T00:36:36;10.20;;;3.00;;
5343;SDS011;2694;48.954;8.928;2023-03-21T00:39:03;7.07;;;2.90;;
5343;SDS011;2694;48.954;8.928;2023-03-21T00:41:31;5.97;;;3.00;;
5343;SDS011;2694;48.954;8.928;2023-03-21T00:43:59;5.07;;;2.88;;
5343;SDS011;2694;48.954;8.928;2023-03-21T00:46:28;5.80;;;3.10;;
5343;SDS011;2694;48.954;8.928;2023-03-21T00:48:55;5.80;;;3.20;;
5343;SDS011;2694;48.954;8.928;2023-03-21T00:51:22;5.60;;;2.55;;
5343;SDS011;2694;48.954;8.928;2023-03-21T00:53:51;5.38;;;2.67;;
5343;SDS011;2694;48.954;8.928;2023-03-21T00:56:19;7.60;;;2.90;;
5343;SDS011;2694;48.954;8.928;2023-03-21T00:58:46;5.90;;;2.80;;
5343;SDS011;2694;48.954;8.928;2023-03-21T01:01:15;7.63;;;2.85;;
5343;SDS011;2694;48.954;8.928;2023-03-21T01:03:42;8.05;;;3.50;;
5343;SDS011;2694;48.954;8.928;2023-03-21T01:06:15;5.78;;;2.45;;
5343;SDS011;2694;48.954;8.928;2023-03-21T01:08:44;9.82;;;2.70;;
5343;SDS011;2694;48.954;8.928;2023-03-21T01:11:14;7.03;;;2.50;;
5343;SDS011;2694;48.954;8.928;2023-03-21T01:13:43;7.40;;;3.13;;
5343;SDS011;2694;48.954;8.928;2023-03-21T01:16:10;5.82;;;2.90;;
5343;SDS011;2694;48.954;8.928;2023-03-21T01:18:39;3.85;;;2.72;;
5343;SDS011;2694;48.954;8.928;2023-03-21T01:21:08;5.10;;;2.88;;
5343;SDS011;2694;48.954;8.928;2023-03-21T01:23:37;4.85;;;3.03;;
5343;SDS011;2694;48.954;8.928;2023-03-21T01:26:06;7.07;;;2.80;;
5343;SDS011;2694;48.954;8.928;2023-03-21T01:28:34;3.30;;;2.05;;
5343;SDS011;2694;48.954;8.928;2023-03-21T01:31:02;4.95;;;2.40;;
5343;SDS011;2694;48.954;8.928;2023-03-21T01:33:30;6.88;;;2.80;;
5343;SDS011;2694;48.954;8.928;2023-03-21T01:35:59;6.13;;;2.50;;
5343;SDS011;2694;48.954;8.928;2023-03-21T01:38:27;6.22;;;3.40;;
5343;SDS011;2694;48.954;8.928;2023-03-21T01:40:54;9.35;;;3.35;;
5343;SDS011;2694;48.954;8.928;2023-03-21T01:43:22;8.65;;;2.42;;
5343;SDS011;2694;48.954;8.928;2023-03-21T01:48:57;5.68;;;3.10;;
5343;SDS011;2694;48.954;8.928;2023-03-21T01:51:28;5.68;;;3.10;;
5343;SDS011;2694;48.954;8.928;2023-03-21T01:53:57;6.30;;;2.70;;
5343;SDS011;2694;48.954;8.928;2023-03-21T01:56:25;7.18;;;2.65;;
5343;SDS011;2694;48.954;8.928;2023-03-21T01:58:55;8.52;;;2.80;;
5343;SDS011;2694;48.954;8.928;2023-03-21T02:01:27;6.00;;;2.75;;
5343;SDS011;2694;48.954;8.928;2023-03-21T02:03:55;3.80;;;2.80;;
5343;SDS011;2694;48.954;8.928;2023-03-21T02:06:33;5.38;;;2.50;;
5343;SDS011;2694;48.954;8.928;2023-03-21T02:09:05;8.82;;;2.85;;
5343;SDS011;2694;48.954;8.928;2023-03-21T02:11:36;5.53;;;2.88;;
5343;SDS011;2694;48.954;8.928;2023-03-21T02:14:04;6.60;;;2.67;;
5343;SDS011;2694;48.954;8.928;2023-03-21T02:16:44;3.97;;;2.10;;
5343;SDS011;2694;48.954;8.928;2023-03-21T02:22:24;5.97;;;3.20;;
5343;SDS011;2694;48.954;8.928;2023-03-21T02:28:08;4.30;;;2.72;;
5343;SDS011;2694;48.954;8.928;2023-03-21T02:31:01;6.63;;;2.97;;
5343;SDS011;2694;48.954;8.928;2023-03-21T02:33:45;6.22;;;2.70;;
5343;SDS011;2694;48.954;8.928;2023-03-21T02:36:49;4.25;;;2.88;;
5343;SDS011;2694;48.954;8.928;2023-03-21T02:39:38;6.93;;;2.55;;
5343;SDS011;2694;48.954;8.928;2023-03-21T02:42:15;5.15;;;2.55;;
5343;SDS011;2694;48.954;8.928;2023-03-21T02:44:48;6.18;;;2.60;;
5343;SDS011;2694;48.954;8.928;2023-03-21T02:47:23;5.50;;;2.97;;
5343;SDS011;2694;48.954;8.928;2023-03-21T02:49:54;5.57;;;2.85;;
5343;SDS011;2694;48.954;8.928;2023-03-21T02:52:30;5.60;;;2.77;;
5343;SDS011;2694;48.954;8.928;2023-03-21T02:54:59;6.05;;;2.90;;
5343;SDS011;2694;48.954;8.928;2023-03-21T02:57:29;5.10;;;2.90;;
5343;SDS011;2694;48.954;8.928;2023-03-21T02:59:57;9.20;;;2.80;;
5343;SDS011;2694;48.954;8.928;2023-03-21T03:02:26;5.03;;;3.20;;
5343;SDS011;2694;48.954;8.928;2023-03-21T03:04:55;4.40;;;2.97;;
5343;SDS011;2694;48.954;8.928;2023-03-21T03:07:26;4.88;;;3.60;;
5343;SDS011;2694;48.954;8.928;2023-03-21T03:10:05;7.05;;;2.90;;
5343;SDS011;2694;48.954;8.928;2023-03-21T03:12:44;4.72;;;2.60;;
5343;SDS011;2694;48.954;8.928;2023-03-21T03:15:23;6.07;;;2.35;;
5343;SDS011;2694;48.954;8.928;2023-03-21T03:17:59;4.60;;;2.55;;
5343;SDS011;2694;48.954;8.928;2023-03-21T03:20:37;4.38;;;2.50;;
5343;SDS011;2694;48.954;8.928;2023-03-21T03:23:18;3.10;;;2.10;;
5343;SDS011;2694;48.954;8.928;2023-03-21T03:25:54;9.05;;;2.53;;
5343;SDS011;2694;48.954;8.928;2023-03-21T03:28:26;4.55;;;2.30;;
5343;SDS011;2694;48.954;8.928;2023-03-21T03:30:57;6.82;;;2.30;;
5343;SDS011;2694;48.954;8.928;2023-03-21T03:33:26;5.38;;;2.38;;
5343;SDS011;2694;48.954;8.928;2023-03-21T03:35:54;5.50;;;2.40;;
5343;SDS011;2694;48.954;8.928;2023-03-21T03:38:25;5.00;;;2.67;;
5343;SDS011;2694;48.954;8.928;2023-03-21T03:40:57;3.00;;;2.20;;
5343;SDS011;2694;48.954;8.928;2023-03-21T03:43:29;6.53;;;3.22;;
5343;SDS011;2694;48.954;8.928;2023-03-21T03:46:04;6.40;;;3.00;;
5343;SDS011;2694;48.954;8.928;2023-03-21T03:48:39;5.28;;;3.13;;
5343;SDS011;2694;48.954;8.928;2023-03-21T03:51:11;6.68;;;3.03;;
5343;SDS011;2694;48.954;8.928;2023-03-21T03:53:43;6.07;;;3.00;;
5343;SDS011;2694;48.954;8.928;2023-03-21T03:56:16;8.13;;;3.45;;
5343;SDS011;2694;48.954;8.928;2023-03-21T03:58:44;6.05;;;2.92;;
5343;SDS011;2694;48.954;8.928;2023-03-21T04:01:12;8.80;;;3.20;;
5343;SDS011;2694;48.954;8.928;2023-03-21T04:03:40;8.27;;;3.30;;
5343;SDS011;2694;48.954;8.928;2023-03-21T04:06:08;8.07;;;3.20;;
5343;SDS011;2694;48.954;8.928;2023-03-21T04:08:35;8.13;;;3.90;;
5343;SDS011;2694;48.954;8.928;2023-03-21T04:11:04;6.35;;;3.28;;
5343;SDS011;2694;48.954;8.928;2023-03-21T04:13:32;7.38;;;3.40;;
5343;SDS011;2694;48.954;8.928;2023-03-21T04:15:59;5.55;;;3.30;;
5343;SDS011;2694;48.954;8.928;2023-03-21T04:18:26;6.15;;;3.20;;
5343;SDS011;2694;48.954;8.928;2023-03-21T04:20:53;7.87;;;3.50;;
5343;SDS011;2694;48.954;8.928;2023-03-21T04:23:20;6.07;;;3.22;;
5343;SDS011;2694;48.954;8.928;2023-03-21T04:25:47;7.78;;;3.60;;
5343;SDS011;2694;48.954;8.928;2023-03-21T04:28:16;7.75;;;3.30;;
5343;SDS011;2694;48.954;8.928;2023-03-21T04:30:43;8.35;;;3.40;;
5343;SDS011;2694;48.954;8.928;2023-03-21T04:33:10;7.38;;;3.90;;
5343;SDS011;2694;48.954;8.928;2023-03-21T04:35:37;5.80;;;3.70;;
5343;SDS011;2694;48.954;8.928;2023-03-21T04:38:04;7.68;;;3.75;;
5343;SDS011;2694;48.954;8.928;2023-03-21T04:40:31;10.05;;;4.00;;
5343;SDS011;2694;48.954;8.928;2023-03-21T04:42:57;4.85;;;3.40;;
5343;SDS011;2694;48.954;8.928;2023-03-21T04:45:26;7.53;;;3.67;;
5343;SDS011;2694;48.954;8.928;2023-03-21T04:47:53;9.90;;;4.20;;
5343;SDS011;2694;48.954;8.928;2023-03-21T04:50:21;11.45;;;4.35;;
5343;SDS011;2694;48.954;8.928;2023-03-21T04:52:48;6.93;;;3.70;;
5343;SDS011;2694;48.954;8.928;2023-03-21T04:55:15;7.13;;;4.20;;
5343;SDS011;2694;48.954;8.928;2023-03-21T04:57:45;7.90;;;4.20;;
5343;SDS011;2694;48.954;8.928;2023-03-21T05:00:13;9.43;;;4.20;;
5343;SDS011;2694;48.954;8.928;2023-03-21T05:02:43;8.40;;;4.30;;
5343;SDS011;2694;48.954;8.928;2023-03-21T05:05:12;6.75;;;4.25;;
5343;SDS011;2694;48.954;8.928;2023-03-21T05:07:41;9.33;;;3.90;;
5343;SDS011;2694;48.954;8.928;2023-03-21T05:10:09;8.85;;;4.53;;
5343;SDS011;2694;48.954;8.928;2023-03-21T05:12:37;8.63;;;4.10;;
5343;SDS011;2694;48.954;8.928;2023-03-21T05:15:05;7.78;;;4.00;;
5343;SDS011;2694;48.954;8.928;2023-03-21T05:17:34;8.27;;;4.38;;
5343;SDS011;2694;48.954;8.928;2023-03-21T05:20:03;8.77;;;4.23;;
5343;SDS011;2694;48.954;8.928;2023-03-21T05:22:33;7.30;;;4.40;;
5343;SDS011;2694;48.954;8.928;2023-03-21T05:25:05;8.93;;;4.70;;
5343;SDS011;2694;48.954;8.928;2023-03-21T05:27:33;7.43;;;4.30;;
5343;SDS011;2694;48.954;8.928;2023-03-21T05:30:02;8.52;;;4.47;;
5343;SDS011;2694;48.954;8.928;2023-03-21T05:32:30;7.65;;;3.90;;
5343;SDS011;2694;48.954;8.928;2023-03-21T05:34:57;11.23;;;4.80;;
5343;SDS011;2694;48.954;8.928;2023-03-21T05:37:26;12.25;;;4.35;;
5343;SDS011;2694;48.954;8.928;2023-03-21T05:39:53;8.70;;;4.30;;
5343;SDS011;2694;48.954;8.928;2023-03-21T05:42:20;9.63;;;3.70;;
5343;SDS011;2694;48.954;8.928;2023-03-21T05:44:48;5.50;;;3.80;;
5343;SDS011;2694;48.954;8.928;2023-03-21T05:47:15;7.60;;;3.50;;
5343;SDS011;2694;48.954;8.928;2023-03-21T05:49:44;8.32;;;3.90;;
5343;SDS011;2694;48.954;8.928;2023-03-21T05:52:12;9.73;;;4.80;;
5343;SDS011;2694;48.954;8.928;2023-03-21T05:54:41;17.77;;;8.30;;
5343;SDS011;2694;48.954;8.928;2023-03-21T05:57:08;10.45;;;4.93;;
5343;SDS011;2694;48.954;8.928;2023-03-21T05:59:35;9.48;;;4.55;;
5343;SDS011;2694;48.954;8.928;2023-03-21T06:02:02;6.18;;;3.95;;
5343;SDS011;2694;48.954;8.928;2023-03-21T06:04:29;6.47;;;3.75;;
5343;SDS011;2694;48.954;8.928;2023-03-21T06:06:56;8.52;;;4.65;;
5343;SDS011;2694;48.954;8.928;2023-03-21T06:09:23;8.43;;;4.35;;
5343;SDS011;2694;48.954;8.928;2023-03-21T06:11:52;9.32;;;4.35;;
5343;SDS011;2694;48.954;8.928;2023-03-21T06:14:21;8.38;;;4.43;;
5343;SDS011;2694;48.954;8.928;2023-03-21T06:16:49;10.27;;;4.68;;
5343;SDS011;2694;48.954;8.928;2023-03-21T06:19:17;8.27;;;5.13;;
5343;SDS011;2694;48.954;8.928;2023-03-21T06:21:45;9.60;;;3.90;;
5343;SDS011;2694;48.954;8.928;2023-03-21T06:24:12;10.82;;;4.35;;
5343;SDS011;2694;48.954;8.928;2023-03-21T06:26:39;8.23;;;4.90;;
5343;SDS011;2694;48.954;8.928;2023-03-21T06:29:08;7.82;;;4.43;;
5343;SDS011;2694;48.954;8.928;2023-03-21T06:31:35;8.13;;;3.75;;
5343;SDS011;2694;48.954;8.928;2023-03-21T06:34:02;9.13;;;4.20;;
5343;SDS011;2694;48.954;8.928;2023-03-21T06:36:29;7.85;;;3.45;;
5343;SDS011;2694;48.954;8.928;2023-03-21T06:38:56;7.25;;;3.40;;
5343;SDS011;2694;48.954;8.928;2023-03-21T06:41:23;10.53;;;4.10;;
5343;SDS011;2694;48.954;8.928;2023-03-21T06:43:50;8.13;;;4.68;;
5343;SDS011;2694;48.954;8.928;2023-03-21T06:46:18;10.75;;;4.70;;
5343;SDS011;2694;48.954;8.928;2023-03-21T06:48:45;11.48;;;4.30;;
5343;SDS011;2694;48.954;8.928;2023-03-21T06:51:12;7.65;;;3.95;;
5343;SDS011;2694;48.954;8.928;2023-03-21T06:53:40;6.95;;;3.92;;
5343;SDS011;2694;48.954;8.928;2023-03-21T06:56:07;7.25;;;3.60;;
5343;SDS011;2694;48.954;8.928;2023-03-21T06:58:34;7.45;;;3.60;;
5343;SDS011;2694;48.954;8.928;2023-03-21T07:01:02;10.18;;;3.08;;
5343;SDS011;2694;48.954;8.928;2023-03-21T07:03:31;6.47;;;2.90;;
5343;SDS011;2694;48.954;8.928;2023-03-21T07:05:58;5.25;;;3.00;;
5343;SDS011;2694;48.954;8.928;2023-03-21T07:08:29;6.57;;;3.40;;
5343;SDS011;2694;48.954;8.928;2023-03-21T07:10:56;5.85;;;3.00;;
5343;SDS011;2694;48.954;8.928;2023-03-21T07:13:23;5.50;;;2.90;;
5343;SDS011;2694;48.954;8.928;2023-03-21T07:15:51;4.95;;;2.67;;
5343;SDS011;2694;48.954;8.928;2023-03-21T07:18:18;5.78;;;2.88;;
5343;SDS011;2694;48.954;8.928;2023-03-21T07:20:47;6.28;;;3.28;;
5343;SDS011;2694;48.954;8.928;2023-03-21T07:23:15;5.15;;;2.70;;
5343;SDS011;2694;48.954;8.928;2023-03-21T07:25:43;4.53;;;2.80;;
5343;SDS011;2694;48.954;8.928;2023-03-21T07:28:10;4.18;;;2.40;;
5343;SDS011;2694;48.954;8.928;2023-03-21T07:30:37;3.25;;;2.20;;
5343;SDS011;2694;48.954;8.928;2023-03-21T07:33:05;3.95;;;2.20;;
5343;SDS011;2694;48.954;8.928;2023-03-21T07:35:33;4.03;;;2.50;;
5343;SDS011;2694;48.954;8.928;2023-03-21T07:38:02;6.55;;;2.70;;
5343;SDS011;2694;48.954;8.928;2023-03-21T07:40:30;8.10;;;2.50;;
5343;SDS011;2694;48.954;8.928;2023-03-21T07:42:57;4.25;;;1.88;;
5343;SDS011;2694;48.954;8.928;2023-03-21T07:45:24;6.82;;;2.97;;
5343;SDS011;2694;48.954;8.928;2023-03-21T07:47:51;5.70;;;2.37;;
5343;SDS011;2694;48.954;8.928;2023-03-21T07:50:18;4.32;;;2.38;;
5343;SDS011;2694;48.954;8.928;2023-03-21T07:52:46;4.80;;;2.00;;
5343;SDS011;2694;48.954;8.928;2023-03-21T07:55:14;5.28;;;2.22;;
5343;SDS011;2694;48.954;8.928;2023-03-21T07:57:42;5.03;;;2.10;;
5343;SDS011;2694;48.954;8.928;2023-03-21T08:00:11;6.63;;;1.98;;
5343;SDS011;2694;48.954;8.928;2023-03-21T08:02:46;7.47;;;2.45;;
5343;SDS011;2694;48.954;8.928;2023-03-21T08:05:14;4.18;;;2.15;;
5343;SDS011;2694;48.954;8.928;2023-03-21T08:07:43;4.47;;;1.80;;
5343;SDS011;2694;48.954;8.928;2023-03-21T08:10:10;2.40;;;1.40;;
5343;SDS011;2694;48.954;8.928;2023-03-21T08:12:38;5.60;;;1.70;;
5343;SDS011;2694;48.954;8.928;2023-03-21T08:15:06;5.28;;;1.48;;
5343;SDS011;2694;48.954;8.928;2023-03-21T08:17:34;4.78;;;1.50;;
5343;SDS011;2694;48.954;8.928;2023-03-21T08:20:02;6.28;;;1.65;;
5343;SDS011;2694;48.954;8.928;2023-03-21T08:22:32;19.70;;;2.10;;
5343;SDS011;2694;48.954;8.928;2023-03-21T08:24:59;13.00;;;2.77;;
5343;SDS011;2694;48.954;8.928;2023-03-21T08:27:26;8.43;;;2.00;;
5343;SDS011;2694;48.954;8.928;2023-03-21T08:29:54;8.63;;;1.70;;
5343;SDS011;2694;48.954;8.928;2023-03-21T08:32:22;11.80;;;2.08;;
5343;SDS011;2694;48.954;8.928;2023-03-21T08:34:53;8.45;;;1.98;;
5343;SDS011;2694;48.954;8.928;2023-03-21T08:37:20;7.10;;;1.80;;
5343;SDS011;2694;48.954;8.928;2023-03-21T08:39:47;4.45;;;1.75;;
5343;SDS011;2694;48.954;8.928;2023-03-21T08:42:13;7.75;;;1.70;;
5343;SDS011;2694;48.954;8.928;2023-03-21T08:44:40;9.65;;;1.52;;
5343;SDS011;2694;48.954;8.928;2023-03-21T08:47:08;5.60;;;1.30;;
5343;SDS011;2694;48.954;8.928;2023-03-21T08:49:35;3.00;;;1.40;;
5343;SDS011;2694;48.954;8.928;2023-03-21T08:52:03;3.10;;;1.40;;
5343;SDS011;2694;48.954;8.928;2023-03-21T08:54:31;3.45;;;1.50;;
5343;SDS011;2694;48.954;8.928;2023-03-21T08:56:58;5.15;;;1.38;;
5343;SDS011;2694;48.954;8.928;2023-03-21T08:59:25;2.40;;;1.40;;
5343;SDS011;2694;48.954;8.928;2023-03-21T09:01:51;5.13;;;1.60;;
5343;SDS011;2694;48.954;8.928;2023-03-21T09:04:20;5.85;;;1.42;;
5343;SDS011;2694;48.954;8.928;2023-03-21T09:06:49;7.32;;;1.88;;
5343;SDS011;2694;48.954;8.928;2023-03-21T09:09:16;3.40;;;1.50;;
5343;SDS011;2694;48.954;8.928;2023-03-21T09:11:44;2.50;;;1.20;;
5343;SDS011;2694;48.954;8.928;2023-03-21T09:14:10;2.05;;;0.90;;
5343;SDS011;2694;48.954;8.928;2023-03-21T09:16:37;5.63;;;1.30;;
5343;SDS011;2694;48.954;8.928;2023-03-21T09:19:05;4.95;;;1.13;;
5343;SDS011;2694;48.954;8.928;2023-03-21T09:21:34;3.70;;;1.30;;
5343;SDS011;2694;48.954;8.928;2023-03-21T09:24:02;6.10;;;1.30;;
5343;SDS011;2694;48.954;8.928;2023-03-21T09:26:31;3.17;;;1.00;;
5343;SDS011;2694;48.954;8.928;2023-03-21T09:28:58;2.03;;;1.30;;
5343;SDS011;2694;48.954;8.928;2023-03-21T09:31:29;2.75;;;1.30;;
5343;SDS011;2694;48.954;8.928;2023-03-21T09:33:55;2.30;;;1.40;;
5343;SDS011;2694;48.954;8.928;2023-03-21T09:36:23;2.30;;;0.90;;
5343;SDS011;2694;48.954;8.928;2023-03-21T09:38:52;4.68;;;1.42;;
5343;SDS011;2694;48.954;8.928;2023-03-21T09:41:39;5.13;;;1.50;;
5343;SDS011;2694;48.954;8.928;2023-03-21T09:44:20;4.00;;;1.60;;
5343;SDS011;2694;48.954;8.928;2023-03-21T09:46:56;3.90;;;1.30;;
5343;SDS011;2694;48.954;8.928;2023-03-21T09:49:30;6.68;;;1.30;;
5343;SDS011;2694;48.954;8.928;2023-03-21T09:52:00;2.30;;;1.10;;
5343;SDS011;2694;48.954;8.928;2023-03-21T09:54:32;4.95;;;1.40;;
5343;SDS011;2694;48.954;8.928;2023-03-21T09:57:04;4.00;;;1.05;;
5343;SDS011;2694;48.954;8.928;2023-03-21T09:59:43;3.60;;;0.90;;
5343;SDS011;2694;48.954;8.928;2023-03-21T10:02:18;3.25;;;1.00;;
5343;SDS011;2694;48.954;8.928;2023-03-21T10:05:01;2.63;;;0.90;;
5343;SDS011;2694;48.954;8.928;2023-03-21T10:07:37;3.92;;;1.05;;
5343;SDS011;2694;48.954;8.928;2023-03-21T10:10:12;4.00;;;1.00;;
5343;SDS011;2694;48.954;8.928;2023-03-21T10:12:43;4.18;;;1.05;;
5343;SDS011;2694;48.954;8.928;2023-03-21T10:15:14;2.00;;;0.90;;
5343;SDS011;2694;48.954;8.928;2023-03-21T10:17:45;4.03;;;1.20;;
5343;SDS011;2694;48.954;8.928;2023-03-21T10:20:16;4.00;;;1.10;;
5343;SDS011;2694;48.954;8.928;2023-03-21T10:22:45;2.50;;;0.80;;
5343;SDS011;2694;48.954;8.928;2023-03-21T10:25:16;4.57;;;1.00;;
5343;SDS011;2694;48.954;8.928;2023-03-21T10:27:46;2.92;;;1.10;;
5343;SDS011;2694;48.954;8.928;2023-03-21T10:30:18;4.05;;;1.00;;
5343;SDS011;2694;48.954;8.928;2023-03-21T10:32:58;2.20;;;0.90;;
5343;SDS011;2694;48.954;8.928;2023-03-21T10:35:29;3.47;;;0.80;;
5343;SDS011;2694;48.954;8.928;2023-03-21T10:37:58;3.65;;;0.70;;
5343;SDS011;2694;48.954;8.928;2023-03-21T10:40:27;1.52;;;0.75;;
5343;SDS011;2694;48.954;8.928;2023-03-21T10:42:54;2.00;;;0.90;;
5343;SDS011;2694;48.954;8.928;2023-03-21T10:45:22;4.70;;;0.90;;
5343;SDS011;2694;48.954;8.928;2023-03-21T10:47:49;3.30;;;0.98;;
5343;SDS011;2694;48.954;8.928;2023-03-21T10:50:17;2.90;;;0.80;;
5343;SDS011;2694;48.954;8.928;2023-03-21T10:52:50;5.00;;;1.10;;
5343;SDS011;2694;48.954;8.928;2023-03-21T10:55:24;2.83;;;1.00;;
5343;SDS011;2694;48.954;8.928;2023-03-21T10:57:56;2.20;;;0.80;;
5343;SDS011;2694;48.954;8.928;2023-03-21T11:00:28;2.97;;;0.90;;
5343;SDS011;2694;48.954;8.928;2023-03-21T11:03:00;3.00;;;0.75;;
5343;SDS011;2694;48.954;8.928;2023-03-21T11:05:32;3.78;;;0.70;;
5343;SDS011;2694;48.954;8.928;2023-03-21T11:08:02;2.00;;;0.70;;
5343;SDS011;2694;48.954;8.928;2023-03-21T11:10:33;2.63;;;1.00;;
5343;SDS011;2694;48.954;8.928;2023-03-21T11:13:06;3.50;;;1.00;;
5343;SDS011;2694;48.954;8.928;2023-03-21T11:15:46;4.18;;;1.00;;
5343;SDS011;2694;48.954;8.928;2023-03-21T11:18:18;2.63;;;1.40;;
5343;SDS011;2694;48.954;8.928;2023-03-21T11:20:48;2.80;;;0.93;;
5343;SDS011;2694;48.954;8.928;2023-03-21T11:23:17;2.83;;;0.80;;
5343;SDS011;2694;48.954;8.928;2023-03-21T11:25:47;2.17;;;0.80;;
5343;SDS011;2694;48.954;8.928;2023-03-21T11:28:16;4.97;;;0.98;;
5343;SDS011;2694;48.954;8.928;2023-03-21T11:30:49;2.03;;;0.97;;
5343;SDS011;2694;48.954;8.928;2023-03-21T11:33:18;2.40;;;0.80;;
5343;SDS011;2694;48.954;8.928;2023-03-21T11:35:56;4.50;;;1.45;;
5343;SDS011;2694;48.954;8.928;2023-03-21T11:38:25;6.25;;;0.80;;
5343;SDS011;2694;48.954;8.928;2023-03-21T11:40:57;6.30;;;1.20;;
5343;SDS011;2694;48.954;8.928;2023-03-21T11:43:26;3.45;;;0.70;;
5343;SDS011;2694;48.954;8.928;2023-03-21T11:45:56;2.40;;;0.70;;
5343;SDS011;2694;48.954;8.928;2023-03-21T11:48:24;2.50;;;0.80;;
5343;SDS011;2694;48.954;8.928;2023-03-21T11:50:52;1.80;;;0.90;;
5343;SDS011;2694;48.954;8.928;2023-03-21T11:53:26;1.50;;;0.60;;
5343;SDS011;2694;48.954;8.928;2023-03-21T11:59:06;1.52;;;0.70;;
5343;SDS011;2694;48.954;8.928;2023-03-21T12:01:56;3.03;;;0.88;;
5343;SDS011;2694;48.954;8.928;2023-03-21T12:04:34;2.28;;;0.70;;
5343;SDS011;2694;48.954;8.928;2023-03-21T12:07:08;2.70;;;1.00;;
5343;SDS011;2694;48.954;8.928;2023-03-21T12:09:56;3.58;;;1.20;;
5343;SDS011;2694;48.954;8.928;2023-03-21T12:12:39;5.27;;;1.60;;
5343;SDS011;2694;48.954;8.928;2023-03-21T12:15:15;4.90;;;1.30;;
5343;SDS011;2694;48.954;8.928;2023-03-21T12:17:49;5.10;;;1.50;;
5343;SDS011;2694;48.954;8.928;2023-03-21T12:20:26;4.80;;;1.10;;
5343;SDS011;2694;48.954;8.928;2023-03-21T12:23:04;2.30;;;0.90;;
5343;SDS011;2694;48.954;8.928;2023-03-21T12:25:49;4.47;;;1.40;;
5343;SDS011;2694;48.954;8.928;2023-03-21T12:28:25;3.08;;;1.50;;
5343;SDS011;2694;48.954;8.928;2023-03-21T12:31:04;4.47;;;1.70;;
5343;SDS011;2694;48.954;8.928;2023-03-21T12:33:43;4.67;;;1.73;;
5343;SDS011;2694;48.954;8.928;2023-03-21T12:36:23;2.95;;;1.73;;
5343;SDS011;2694;48.954;8.928;2023-03-21T12:39:03;4.45;;;2.17;;
5343;SDS011;2694;48.954;8.928;2023-03-21T12:41:43;13.97;;;1.67;;
5343;SDS011;2694;48.954;8.928;2023-03-21T12:44:16;8.30;;;1.80;;
5343;SDS011;2694;48.954;8.928;2023-03-21T12:46:47;4.30;;;1.70;;
5343;SDS011;2694;48.954;8.928;2023-03-21T12:49:20;8.75;;;1.80;;
5343;SDS011;2694;48.954;8.928;2023-03-21T12:51:53;3.60;;;1.40;;
5343;SDS011;2694;48.954;8.928;2023-03-21T12:54:25;5.10;;;1.33;;
5343;SDS011;2694;48.954;8.928;2023-03-21T12:56:57;3.40;;;1.70;;
5343;SDS011;2694;48.954;8.928;2023-03-21T12:59:32;3.33;;;1.20;;
5343;SDS011;2694;48.954;8.928;2023-03-21T13:02:09;2.22;;;1.30;;
5343;SDS011;2694;48.954;8.928;2023-03-21T13:04:45;2.42;;;1.40;;
5343;SDS011;2694;48.954;8.928;2023-03-21T13:07:17;4.30;;;1.90;;
5343;SDS011;2694;48.954;8.928;2023-03-21T13:09:47;4.60;;;1.30;;
5343;SDS011;2694;48.954;8.928;2023-03-21T13:12:18;2.90;;;1.33;;
5343;SDS011;2694;48.954;8.928;2023-03-21T13:14:55;3.60;;;1.50;;
5343;SDS011;2694;48.954;8.928;2023-03-21T13:17:31;5.15;;;1.50;;
5343;SDS011;2694;48.954;8.928;2023-03-21T13:20:04;3.65;;;1.40;;
5343;SDS011;2694;48.954;8.928;2023-03-21T13:22:39;3.63;;;1.35;;
5343;SDS011;2694;48.954;8.928;2023-03-21T13:25:14;4.90;;;1.60;;
5343;SDS011;2694;48.954;8.928;2023-03-21T13:27:43;3.17;;;1.27;;
5343;SDS011;2694;48.954;8.928;2023-03-21T13:30:18;5.90;;;1.70;;
5343;SDS011;2694;48.954;8.928;2023-03-21T13:32:47;4.07;;;1.50;;
5343;SDS011;2694;48.954;8.928;2023-03-21T13:35:17;5.60;;;1.67;;
5343;SDS011;2694;48.954;8.928;2023-03-21T13:37:48;3.17;;;1.70;;
5343;SDS011;2694;48.954;8.928;2023-03-21T13:40:20;3.80;;;1.30;;
5343;SDS011;2694;48.954;8.928;2023-03-21T13:42:50;3.47;;;1.52;;
5343;SDS011;2694;48.954;8.928;2023-03-21T13:45:27;3.00;;;1.75;;
5343;SDS011;2694;48.954;8.928;2023-03-21T13:47:57;3.83;;;1.60;;
5343;SDS011;2694;48.954;8.928;2023-03-21T13:50:34;3.70;;;1.50;;
5343;SDS011;2694;48.954;8.928;2023-03-21T13:53:20;5.20;;;1.75;;
5343;SDS011;2694;48.954;8.928;2023-03-21T13:56:00;3.88;;;1.90;;
5343;SDS011;2694;48.954;8.928;2023-03-21T13:58:52;3.00;;;1.67;;
5343;SDS011;2694;48.954;8.928;2023-03-21T14:01:29;3.08;;;1.33;;
5343;SDS011;2694;48.954;8.928;2023-03-21T14:04:05;3.40;;;1.47;;
5343;SDS011;2694;48.954;8.928;2023-03-21T14:06:41;4.60;;;1.80;;
5343;SDS011;2694;48.954;8.928;2023-03-21T14:09:15;4.60;;;1.60;;
5343;SDS011;2694;48.954;8.928;2023-03-21T14:11:47;4.33;;;1.57;;
5343;SDS011;2694;48.954;8.928;2023-03-21T14:14:16;4.30;;;1.50;;
5343;SDS011;2694;48.954;8.928;2023-03-21T14:16:46;2.85;;;1.38;;
5343;SDS011;2694;48.954;8.928;2023-03-21T14:19:13;4.85;;;1.80;;
5343;SDS011;2694;48.954;8.928;2023-03-21T14:21:45;3.53;;;1.77;;
5343;SDS011;2694;48.954;8.928;2023-03-21T14:24:15;4.10;;;1.77;;
5343;SDS011;2694;48.954;8.928;2023-03-21T14:26:44;6.70;;;2.00;;
5343;SDS011;2694;48.954;8.928;2023-03-21T14:29:14;4.18;;;1.85;;
5343;SDS011;2694;48.954;8.928;2023-03-21T14:31:50;2.42;;;1.45;;
5343;SDS011;2694;48.954;8.928;2023-03-21T14:34:18;5.18;;;1.50;;
5343;SDS011;2694;48.954;8.928;2023-03-21T14:36:47;2.83;;;1.50;;
5343;SDS011;2694;48.954;8.928;2023-03-21T14:39:16;4.53;;;1.80;;
5343;SDS011;2694;48.954;8.928;2023-03-21T14:41:46;7.93;;;1.45;;
5343;SDS011;2694;48.954;8.928;2023-03-21T14:44:17;3.95;;;1.80;;
5343;SDS011;2694;48.954;8.928;2023-03-21T14:46:52;4.65;;;1.70;;
5343;SDS011;2694;48.954;8.928;2023-03-21T14:49:25;4.10;;;1.42;;
5343;SDS011;2694;48.954;8.928;2023-03-21T14:51:54;3.03;;;1.33;;
5343;SDS011;2694;48.954;8.928;2023-03-21T14:54:23;5.77;;;1.03;;
5343;SDS011;2694;48.954;8.928;2023-03-21T14:56:52;5.68;;;1.83;;
5343;SDS011;2694;48.954;8.928;2023-03-21T14:59:24;3.30;;;1.80;;
5343;SDS011;2694;48.954;8.928;2023-03-21T15:01:56;3.85;;;1.42;;
5343;SDS011;2694;48.954;8.928;2023-03-21T15:04:27;4.38;;;1.70;;
5343;SDS011;2694;48.954;8.928;2023-03-21T15:06:59;3.27;;;1.50;;
5343;SDS011;2694;48.954;8.928;2023-03-21T15:09:29;2.58;;;1.20;;
5343;SDS011;2694;48.954;8.928;2023-03-21T15:11:58;6.55;;;2.00;;
5343;SDS011;2694;48.954;8.928;2023-03-21T15:14:27;2.72;;;1.50;;
5343;SDS011;2694;48.954;8.928;2023-03-21T15:16:58;11.15;;;1.80;;
5343;SDS011;2694;48.954;8.928;2023-03-21T15:19:28;2.78;;;1.40;;
5343;SDS011;2694;48.954;8.928;2023-03-21T15:22:03;3.20;;;1.35;;
5343;SDS011;2694;48.954;8.928;2023-03-21T15:24:35;1.90;;;1.10;;
5343;SDS011;2694;48.954;8.928;2023-03-21T15:27:06;2.33;;;1.00;;
5343;SDS011;2694;48.954;8.928;2023-03-21T15:29:37;2.67;;;1.10;;
5343;SDS011;2694;48.954;8.928;2023-03-21T15:32:10;13.57;;;1.90;;
5343;SDS011;2694;48.954;8.928;2023-03-21T15:34:41;6.72;;;1.10;;
5343;SDS011;2694;48.954;8.928;2023-03-21T15:37:13;3.10;;;1.40;;
5343;SDS011;2694;48.954;8.928;2023-03-21T15:39:42;2.38;;;1.13;;
5343;SDS011;2694;48.954;8.928;2023-03-21T15:42:21;4.90;;;1.50;;
5343;SDS011;2694;48.954;8.928;2023-03-21T15:44:59;4.38;;;1.40;;
5343;SDS011;2694;48.954;8.928;2023-03-21T15:47:41;5.53;;;1.30;;
5343;SDS011;2694;48.954;8.928;2023-03-21T15:50:20;2.80;;;1.15;;